Observation data for Dora on 02/15/2017      Previous  Date  Next       Current Mesonet Observations  Soil Data  Daily Summary Page  Observations in Plain Language
KDR1 150600Z 29010KT 01/M03 A3022 RMK A01 T00061030  RH  077%=      5-min Rain = 0
KDR1 150605Z 29010KT 01/M03 A3022 RMK A01 T00051031  RH  078%=      5-min Rain = 0
KDR1 150610Z 29010KT 01/M03 A3022 RMK A01 T00051030  RH  078%=      5-min Rain = 0
KDR1 150615Z 29010KT 01/M03 A3022 RMK A01 T00061031  RH  077%=      5-min Rain = 0
KDR1 150620Z 29010KT 01/M03 A3022 RMK A01 T00061031  RH  077%=      5-min Rain = 0
KDR1 150625Z 29010KT 01/M03 A3023 RMK A01 T00081032  RH  075%=      5-min Rain = 0
KDR1 150630Z 29010KT 01/M03 A3023 RMK A01 T00081033  RH  075%=      5-min Rain = 0
KDR1 150635Z 29011KT 01/M03 A3023 RMK A01 T00081033  RH  075%=      5-min Rain = 0
KDR1 150640Z 29011KT 01/M03 A3023 RMK A01 T00081034  RH  074%=      5-min Rain = 0
KDR1 150645Z 29010KT 01/M03 A3023 RMK A01 T00071034  RH  075%=      5-min Rain = 0
KDR1 150650Z 29011KT 01/M04 A3023 RMK A01 T00061035  RH  075%=      5-min Rain = 0
KDR1 150655Z 29010KT 01/M04 A3023 RMK A01 T00061035  RH  075%=      5-min Rain = 0
KDR1 150700Z 29010KT 01/M04 A3023 RMK A01 T00061036  RH  075%=      5-min Rain = 0
KDR1 150705Z 29010KT 00/M04 A3023 RMK A01 T00041036  RH  075%=      5-min Rain = 0
KDR1 150710Z 29010KT 01/M04 A3023 RMK A01 T00051036  RH  075%=      5-min Rain = 0
KDR1 150715Z 29010KT 01/M04 A3023 RMK A01 T00061037  RH  074%=      5-min Rain = 0
KDR1 150720Z 29011KT 01/M04 A3023 RMK A01 T00061037  RH  074%=      5-min Rain = 0
KDR1 150725Z 29010KT 01/M04 A3023 RMK A01 T00061038  RH  073%=      5-min Rain = 0
KDR1 150730Z 29011KT 01/M04 A3023 RMK A01 T00051037  RH  074%=      5-min Rain = 0
KDR1 150735Z 29011KT 00/M04 A3023 RMK A01 T00041037  RH  075%=      5-min Rain = 0
KDR1 150740Z 30010KT 00/M04 A3023 RMK A01 T00041037  RH  075%=      5-min Rain = 0
KDR1 150745Z 29010KT 01/M04 A3023 RMK A01 T00051037  RH  074%=      5-min Rain = 0
KDR1 150750Z 29010KT 01/M04 A3023 RMK A01 T00051038  RH  074%=      5-min Rain = 0
KDR1 150755Z 29010KT 00/M04 A3023 RMK A01 T00041039  RH  074%=      5-min Rain = 0
KDR1 150800Z 30011KT 00/M04 A3023 RMK A01 T00041041  RH  073%=      5-min Rain = 0
KDR1 150805Z 30011KT 00/M04 A3023 RMK A01 T00031042  RH  073%=      5-min Rain = 0
KDR1 150810Z 30012KT 00/M04 A3023 RMK A01 T00041042  RH  072%=      5-min Rain = 0
KDR1 150815Z 29011KT 00/M04 A3023 RMK A01 T00021042  RH  073%=      5-min Rain = 0
KDR1 150820Z 29011KT 00/M04 A3023 RMK A01 T00021043  RH  072%=      5-min Rain = 0
KDR1 150825Z 30012KT 00/M04 A3023 RMK A01 T00021044  RH  072%=      5-min Rain = 0
KDR1 150830Z 30013KT 01/M04 A3023 RMK A01 T00051044  RH  070%=      5-min Rain = 0
KDR1 150835Z 30014KT 01/M05 A3023 RMK A01 T00061045  RH  069%=      5-min Rain = 0
KDR1 150840Z 30014KT 00/M05 A3023 RMK A01 T00041046  RH  070%=      5-min Rain = 0
KDR1 150845Z 30013KT 00/M05 A3023 RMK A01 T00011045  RH  072%=      5-min Rain = 0
KDR1 150850Z 30012KT 00/M05 A3023 RMK A01 T00011045  RH  072%=      5-min Rain = 0
KDR1 150855Z 30012KT M00/M05 A3023 RMK A01 T10011045  RH  073%=      5-min Rain = 0
KDR1 150900Z 30012KT M00/M05 A3023 RMK A01 T10011045  RH  073%=      5-min Rain = 0
KDR1 150905Z 30011KT M00/M05 A3023 RMK A01 T10031045  RH  074%=      5-min Rain = 0
KDR1 150910Z 31012KT M00/M05 A3023 RMK A01 T10041045  RH  075%=      5-min Rain = 0
KDR1 150915Z 31012KT M00/M05 A3023 RMK A01 T10041045  RH  075%=      5-min Rain = 0
KDR1 150920Z 31012KT M00/M05 A3022 RMK A01 T10031045  RH  074%=      5-min Rain = 0
KDR1 150925Z 31011KT M00/M05 A3023 RMK A01 T10041045  RH  075%=      5-min Rain = 0
KDR1 150930Z 31011KT M00/M05 A3022 RMK A01 T10041045  RH  075%=      5-min Rain = 0
KDR1 150935Z 31011KT M01/M05 A3022 RMK A01 T10061045  RH  075%=      5-min Rain = 0
KDR1 150940Z 31011KT M01/M05 A3022 RMK A01 T10061046  RH  076%=      5-min Rain = 0
KDR1 150945Z 31010KT M01/M05 A3022 RMK A01 T10071046  RH  076%=      5-min Rain = 0
KDR1 150950Z 31011KT M01/M05 A3022 RMK A01 T10071046  RH  076%=      5-min Rain = 0
KDR1 150955Z 31011KT M01/M05 A3022 RMK A01 T10091046  RH  077%=      5-min Rain = 0
KDR1 151000Z 31011KT M01/M05 A3022 RMK A01 T10101046  RH  077%=      5-min Rain = 0
KDR1 151005Z 32011KT M01/M05 A3022 RMK A01 T10111046  RH  078%=      5-min Rain = 0
KDR1 151010Z 31010KT M01/M05 A3022 RMK A01 T10111046  RH  078%=      5-min Rain = 0
KDR1 151015Z 31010KT M01/M05 A3022 RMK A01 T10121046  RH  079%=      5-min Rain = 0
KDR1 151020Z 31009KT M01/M05 A3022 RMK A01 T10141046  RH  080%=      5-min Rain = 0
KDR1 151025Z 31010KT M02/M05 A3022 RMK A01 T10151046  RH  080%=      5-min Rain = 0
KDR1 151030Z 30009KT M02/M05 A3022 RMK A01 T10161047  RH  080%=      5-min Rain = 0
KDR1 151035Z 30010KT M02/M05 A3022 RMK A01 T10151046  RH  080%=      5-min Rain = 0
KDR1 151040Z 31010KT M01/M05 A3022 RMK A01 T10141046  RH  080%=      5-min Rain = 0
KDR1 151045Z 31011KT M01/M05 A3022 RMK A01 T10141046  RH  079%=      5-min Rain = 0
KDR1 151050Z 32011KT M01/M05 A3022 RMK A01 T10121046  RH  079%=      5-min Rain = 0
KDR1 151055Z 32011KT M01/M05 A3022 RMK A01 T10111046  RH  078%=      5-min Rain = 0
KDR1 151100Z 32011KT M01/M05 A3022 RMK A01 T10121046  RH  078%=      5-min Rain = 0
KDR1 151105Z 32010KT M01/M05 A3022 RMK A01 T10121046  RH  079%=      5-min Rain = 0
KDR1 151110Z 31009KT M01/M05 A3022 RMK A01 T10131046  RH  079%=      5-min Rain = 0
KDR1 151115Z 31009KT M01/M05 A3022 RMK A01 T10141046  RH  079%=      5-min Rain = 0
KDR1 151120Z 31009KT M02/M05 A3022 RMK A01 T10151047  RH  080%=      5-min Rain = 0
KDR1 151125Z 31009KT M02/M05 A3022 RMK A01 T10151047  RH  080%=      5-min Rain = 0
KDR1 151130Z 31009KT M02/M05 A3022 RMK A01 T10161048  RH  080%=      5-min Rain = 0
KDR1 151135Z 31009KT M02/M05 A3022 RMK A01 T10171048  RH  080%=      5-min Rain = 0
KDR1 151140Z 31009KT M02/M05 A3022 RMK A01 T10181048  RH  080%=      5-min Rain = 0
KDR1 151145Z 31010KT M02/M05 A3023 RMK A01 T10171048  RH  080%=      5-min Rain = 0
KDR1 151150Z 31010KT M02/M05 A3023 RMK A01 T10161048  RH  080%=      5-min Rain = 0
KDR1 151155Z 31010KT M02/M05 A3023 RMK A01 T10161048  RH  080%=      5-min Rain = 0
KDR1 151200Z 31010KT M02/M05 A3023 RMK A01 T10151048  RH  079%=      5-min Rain = 0
KDR1 151205Z 31009KT M02/M05 A3023 RMK A01 T10151049  RH  079%=      5-min Rain = 0
KDR1 151210Z 31009KT M02/M05 A3023 RMK A01 T10161049  RH  079%=      5-min Rain = 0
KDR1 151215Z 31010KT M02/M05 A3023 RMK A01 T10161049  RH  079%=      5-min Rain = 0
KDR1 151220Z 31009KT M02/M05 A3023 RMK A01 T10161049  RH  079%=      5-min Rain = 0
KDR1 151225Z 31009KT M02/M05 A3023 RMK A01 T10171050  RH  079%=      5-min Rain = 0
KDR1 151230Z 31009KT M02/M05 A3023 RMK A01 T10171050  RH  079%=      5-min Rain = 0
KDR1 151235Z 31009KT M02/M05 A3023 RMK A01 T10161050  RH  079%=      5-min Rain = 0
KDR1 151240Z 31009KT M02/M05 A3024 RMK A01 T10161050  RH  079%=      5-min Rain = 0
KDR1 151245Z 31009KT M02/M05 A3024 RMK A01 T10171050  RH  079%=      5-min Rain = 0
KDR1 151250Z 31009KT M02/M05 A3024 RMK A01 T10171051  RH  079%=      5-min Rain = 0
KDR1 151255Z 31009KT M02/M05 A3024 RMK A01 T10181050  RH  079%=      5-min Rain = 0
KDR1 151300Z 31009KT M02/M05 A3024 RMK A01 T10191051  RH  080%=      5-min Rain = 0
KDR1 151305Z 31009KT M02/M05 A3024 RMK A01 T10201051  RH  080%=      5-min Rain = 0
KDR1 151310Z 31009KT M02/M05 A3024 RMK A01 T10201051  RH  080%=      5-min Rain = 0
KDR1 151315Z 31009KT M02/M05 A3025 RMK A01 T10201051  RH  080%=      5-min Rain = 0
KDR1 151320Z 31009KT M02/M05 A3025 RMK A01 T10201051  RH  080%=      5-min Rain = 0
KDR1 151325Z 31009KT M02/M05 A3025 RMK A01 T10201051  RH  080%=      5-min Rain = 0
KDR1 151330Z 31009KT M02/M05 A3025 RMK A01 T10191051  RH  080%=      5-min Rain = 0
KDR1 151335Z 31009KT M02/M05 A3025 RMK A01 T10191051  RH  080%=      5-min Rain = 0
KDR1 151340Z 31009KT M02/M05 A3025 RMK A01 T10191051  RH  080%=      5-min Rain = 0
KDR1 151345Z 31009KT M02/M05 A3025 RMK A01 T10171051  RH  079%=      5-min Rain = 0
KDR1 151350Z 30009KT M02/M05 A3025 RMK A01 T10161050  RH  078%=      5-min Rain = 0
KDR1 151355Z 30009KT M02/M05 A3025 RMK A01 T10151050  RH  078%=      5-min Rain = 0
KDR1 151400Z 31009KT M01/M05 A3025 RMK A01 T10131048  RH  078%=      5-min Rain = 0
KDR1 151405Z 31009KT M01/M05 A3025 RMK A01 T10101047  RH  077%=      5-min Rain = 0
KDR1 151410Z 31009KT M01/M05 A3025 RMK A01 T10071046  RH  076%=      5-min Rain = 0
KDR1 151415Z 31008KT M00/M04 A3026 RMK A01 T10041044  RH  075%=      5-min Rain = 0
KDR1 151420Z 31008KT M00/M04 A3026 RMK A01 T10011043  RH  074%=      5-min Rain = 0
KDR1 151425Z 31008KT 00/M04 A3026 RMK A01 T00021041  RH  073%=      5-min Rain = 0
KDR1 151430Z 31007KT 01/M04 A3026 RMK A01 T00051039  RH  074%=      5-min Rain = 0
KDR1 151435Z 31007KT 01/M04 A3027 RMK A01 T00071038  RH  073%=      5-min Rain = 0
KDR1 151440Z 31008KT 01/M04 A3027 RMK A01 T00101037  RH  072%=      5-min Rain = 0
KDR1 151445Z 31008KT 01/M04 A3027 RMK A01 T00141037  RH  070%=      5-min Rain = 0
KDR1 151450Z 32007KT 02/M04 A3027 RMK A01 T00171036  RH  069%=      5-min Rain = 0
KDR1 151455Z 32008KT 02/M04 A3027 RMK A01 T00201036  RH  067%=      5-min Rain = 0
KDR1 151500Z 32008KT 02/M04 A3027 RMK A01 T00241035  RH  066%=      5-min Rain = 0
KDR1 151505Z 32008KT 03/M04 A3028 RMK A01 T00261036  RH  065%=      5-min Rain = 0
KDR1 151510Z 32008KT 03/M04 A3028 RMK A01 T00271036  RH  064%=      5-min Rain = 0
KDR1 151515Z 32008KT 03/M04 A3028 RMK A01 T00291037  RH  063%=      5-min Rain = 0
KDR1 151520Z 33008KT 03/M04 A3028 RMK A01 T00311035  RH  063%=      5-min Rain = 0
KDR1 151525Z 33007KT 03/M04 A3028 RMK A01 T00331035  RH  062%=      5-min Rain = 0
KDR1 151530Z 33007KT 03/M04 A3028 RMK A01 T00341037  RH  060%=      5-min Rain = 0
KDR1 151535Z 33007KT 04/M04 A3029 RMK A01 T00371037  RH  059%=      5-min Rain = 0
KDR1 151540Z 34007KT 04/M04 A3029 RMK A01 T00381039  RH  058%=      5-min Rain = 0
KDR1 151545Z 33008KT 04/M04 A3028 RMK A01 T00401036  RH  058%=      5-min Rain = 0
KDR1 151550Z 33008KT 04/M04 A3028 RMK A01 T00411036  RH  058%=      5-min Rain = 0
KDR1 151555Z 33008KT 04/M04 A3028 RMK A01 T00431037  RH  057%=      5-min Rain = 0
KDR1 151600Z 33007KT 05/M04 A3028 RMK A01 T00451035  RH  057%=      5-min Rain = 0
KDR1 151605Z 32007KT 05/M03 A3028 RMK A01 T00461034  RH  057%=      5-min Rain = 0
KDR1 151610Z 34007KT 05/M04 A3028 RMK A01 T00491035  RH  055%=      5-min Rain = 0
KDR1 151615Z 33007KT 05/M04 A3028 RMK A01 T00511035  RH  054%=      5-min Rain = 0
KDR1 151620Z 33007KT 06/M04 A3028 RMK A01 T00551035  RH  053%=      5-min Rain = 0
KDR1 151625Z 34007KT 06/M04 A3028 RMK A01 T00561039  RH  051%=      5-min Rain = 0
KDR1 151630Z 34007KT 06/M03 A3028 RMK A01 T00601032  RH  052%=      5-min Rain = 0
KDR1 151635Z 34006KT 06/M03 A3028 RMK A01 T00631034  RH  050%=      5-min Rain = 0
KDR1 151640Z 34006KT 06/M03 A3028 RMK A01 T00631034  RH  050%=      5-min Rain = 0
KDR1 151645Z 33006KT 07/M03 A3028 RMK A01 T00651032  RH  050%=      5-min Rain = 0
KDR1 151650Z 33006KT 07/M03 A3028 RMK A01 T00671033  RH  050%=      5-min Rain = 0
KDR1 151655Z 34007KT 07/M03 A3028 RMK A01 T00691033  RH  049%=      5-min Rain = 0
KDR1 151700Z 34007KT 07/M03 A3028 RMK A01 T00711034  RH  048%=      5-min Rain = 0
KDR1 151705Z 33006KT 07/M04 A3028 RMK A01 T00721037  RH  046%=      5-min Rain = 0
KDR1 151710Z 34006KT 08/M03 A3028 RMK A01 T00751033  RH  047%=      5-min Rain = 0
KDR1 151715Z 33007KT 08/M04 A3028 RMK A01 T00761037  RH  045%=      5-min Rain = 0
KDR1 151720Z 35005KT 08/M04 A3028 RMK A01 T00781044  RH  042%=      5-min Rain = 0
KDR1 151725Z 35005KT 08/M04 A3027 RMK A01 T00821042  RH  042%=      5-min Rain = 0
KDR1 151730Z 33006KT 08/M05 A3027 RMK A01 T00801046  RH  041%=      5-min Rain = 0
KDR1 151735Z 33006G11KT 08/M05 A3027 RMK A01 T00821045  RH  041%=      5-min Rain = 0
KDR1 151740Z 33007KT 08/M05 A3027 RMK A01 T00841045  RH  040%=      5-min Rain = 0
KDR1 151745Z 36006KT 09/M05 A3027 RMK A01 T00861047  RH  039%=      5-min Rain = 0
KDR1 151750Z 32004KT 08/M05 A3027 RMK A01 T00841050  RH  039%=      5-min Rain = 0
KDR1 151755Z 32007KT 09/M04 A3027 RMK A01 T00861044  RH  040%=      5-min Rain = 0
KDR1 151800Z 34009KT 09/M04 A3027 RMK A01 T00911042  RH  039%=      5-min Rain = 0
KDR1 151805Z 34008KT 09/M05 A3026 RMK A01 T00901048  RH  038%=      5-min Rain = 0
KDR1 151810Z 35006G14KT 09/M05 A3026 RMK A01 T00921046  RH  038%=      5-min Rain = 0
KDR1 151815Z 35007KT 10/M04 A3026 RMK A01 T00971043  RH  037%=      5-min Rain = 0
KDR1 151820Z 31009KT 09/M04 A3026 RMK A01 T00931041  RH  039%=      5-min Rain = 0
KDR1 151825Z 32011KT 09/M04 A3026 RMK A01 T00931036  RH  040%=      5-min Rain = 0
KDR1 151830Z 33009KT 09/M04 A3026 RMK A01 T00931044  RH  038%=      5-min Rain = 0
KDR1 151835Z 34007G13KT 10/M05 A3026 RMK A01 T00971046  RH  037%=      5-min Rain = 0
KDR1 151840Z 31007KT 10/M05 A3025 RMK A01 T00951047  RH  037%=      5-min Rain = 0
KDR1 151845Z 32009G16KT 10/M04 A3025 RMK A01 T00981036  RH  039%=      5-min Rain = 0
KDR1 151850Z 32007G12KT 10/M04 A3025 RMK A01 T00981038  RH  039%=      5-min Rain = 0
KDR1 151855Z 35009KT 10/M05 A3025 RMK A01 T01041047  RH  035%=      5-min Rain = 0
KDR1 151900Z 34005G11KT 10/M06 A3025 RMK A01 T01021058  RH  032%=      5-min Rain = 0
KDR1 151905Z 33009KT 10/M04 A3024 RMK A01 T01011044  RH  036%=      5-min Rain = 0
KDR1 151910Z 33009G14KT 10/M04 A3024 RMK A01 T01031043  RH  036%=      5-min Rain = 0
KDR1 151915Z 31009KT 10/M05 A3024 RMK A01 T00991045  RH  036%=      5-min Rain = 0
KDR1 151920Z 34005G13KT 10/M06 A3023 RMK A01 T00991055  RH  034%=      5-min Rain = 0
KDR1 151925Z 34010KT 11/M05 A3023 RMK A01 T01051049  RH  034%=      5-min Rain = 0
KDR1 151930Z 35007KT 11/M05 A3023 RMK A01 T01071053  RH  032%=      5-min Rain = 0
KDR1 151935Z 30002G7KT 10/M05 A3022 RMK A01 T01041054  RH  033%=      5-min Rain = 0
KDR1 151940Z 02008KT 11/M06 A3022 RMK A01 T01101061  RH  030%=      5-min Rain = 0
KDR1 151945Z 35008KT 11/M06 A3022 RMK A01 T01101061  RH  030%=      5-min Rain = 0
KDR1 151950Z 34005KT 11/M06 A3022 RMK A01 T01071060  RH  031%=      5-min Rain = 0
KDR1 151955Z 08000KT 11/M06 A3021 RMK A01 T01081063  RH  030%=      5-min Rain = 0
KDR1 152000Z 36004G10KT 11/M06 A3021 RMK A01 T01131057  RH  030%=      5-min Rain = 0
KDR1 152005Z 33009KT 11/M04 A3021 RMK A01 T01111044  RH  034%=      5-min Rain = 0
KDR1 152010Z 34004G12KT 11/M06 A3021 RMK A01 T01081057  RH  031%=      5-min Rain = 0
KDR1 152015Z 34004G10KT 11/M05 A3021 RMK A01 T01131052  RH  031%=      5-min Rain = 0
KDR1 152020Z 34006KT 11/M06 A302 RMK A01 T01111059  RH  030%=      5-min Rain = 0
KDR1 152025Z 33007KT 11/M06 A302 RMK A01 T01121055  RH  031%=      5-min Rain = 0
KDR1 152030Z 33004G10KT 11/M06 A302 RMK A01 T01131059  RH  030%=      5-min Rain = 0
KDR1 152035Z 01008G14KT 12/M06 A3019 RMK A01 T01161063  RH  028%=      5-min Rain = 0
KDR1 152040Z 33007G12KT 12/M05 A3019 RMK A01 T01161051  RH  031%=      5-min Rain = 0
KDR1 152045Z 33007G12KT 11/M06 A3019 RMK A01 T01141059  RH  030%=      5-min Rain = 0
KDR1 152050Z 34003KT 12/M07 A3019 RMK A01 T01151070  RH  027%=      5-min Rain = 0
KDR1 152055Z 35004G11KT 11/M07 A3018 RMK A01 T01141070  RH  027%=      5-min Rain = 0
KDR1 152100Z 00003KT 11/M07 A3018 RMK A01 T01141070  RH  027%=      5-min Rain = 0
KDR1 152105Z 25004G10KT 12/M06 A3018 RMK A01 T01161055  RH  030%=      5-min Rain = 0
KDR1 152110Z 33007G15KT 12/M05 A3018 RMK A01 T01211049  RH  030%=      5-min Rain = 0
KDR1 152115Z 33008KT 12/M05 A3017 RMK A01 T01171052  RH  031%=      5-min Rain = 0
KDR1 152120Z 01006G11KT 12/M06 A3017 RMK A01 T01171063  RH  028%=      5-min Rain = 0
KDR1 152125Z 30001KT 12/M07 A3017 RMK A01 T01171066  RH  028%=      5-min Rain = 0
KDR1 152130Z 32006G11KT 12/M05 A3017 RMK A01 T01211053  RH  030%=      5-min Rain = 0
KDR1 152135Z 32011KT 12/M05 A3017 RMK A01 T01191053  RH  030%=      5-min Rain = 0
KDR1 152140Z 32007G13KT 12/M06 A3016 RMK A01 T01181057  RH  029%=      5-min Rain = 0
KDR1 152145Z 30007G14KT 12/M06 A3016 RMK A01 T01181059  RH  029%=      5-min Rain = 0
KDR1 152150Z 32006KT 12/M06 A3016 RMK A01 T01221058  RH  028%=      5-min Rain = 0
KDR1 152155Z 32008KT 12/M06 A3016 RMK A01 T01191058  RH  029%=      5-min Rain = 0
KDR1 152200Z 35004G11KT 12/M07 A3016 RMK A01 T01191072  RH  026%=      5-min Rain = 0
KDR1 152205Z 28004G11KT 12/M07 A3016 RMK A01 T01221070  RH  026%=      5-min Rain = 0
KDR1 152210Z 31009KT 12/M06 A3016 RMK A01 T01221056  RH  029%=      5-min Rain = 0
KDR1 152215Z 34008G14KT 12/M06 A3015 RMK A01 T01231058  RH  028%=      5-min Rain = 0
KDR1 152220Z 31008G13KT 13/M05 A3015 RMK A01 T01261051  RH  029%=      5-min Rain = 0
KDR1 152225Z 28008KT 12/M05 A3015 RMK A01 T01231053  RH  029%=      5-min Rain = 0
KDR1 152230Z 30007KT 12/M06 A3015 RMK A01 T01211059  RH  028%=      5-min Rain = 0
KDR1 152235Z 29006KT 12/M06 A3015 RMK A01 T01221058  RH  028%=      5-min Rain = 0
KDR1 152240Z 31006KT 12/M06 A3015 RMK A01 T01231060  RH  028%=      5-min Rain = 0
KDR1 152245Z 29007G13KT 12/M06 A3015 RMK A01 T01221061  RH  028%=      5-min Rain = 0
KDR1 152250Z 30010KT 12/M06 A3014 RMK A01 T01221055  RH  029%=      5-min Rain = 0
KDR1 152255Z 29008KT 12/M06 A3014 RMK A01 T01211059  RH  028%=      5-min Rain = 0
KDR1 152300Z 29008KT 12/M05 A3014 RMK A01 T01221052  RH  030%=      5-min Rain = 0
KDR1 152305Z 29005KT 12/M06 A3014 RMK A01 T01231060  RH  028%=      5-min Rain = 0
KDR1 152310Z 30005G10KT 12/M06 A3014 RMK A01 T01211062  RH  028%=      5-min Rain = 0
KDR1 152315Z 28004G9KT 12/M07 A3014 RMK A01 T01221067  RH  026%=      5-min Rain = 0
KDR1 152320Z 27006KT 12/M06 A3014 RMK A01 T01231057  RH  028%=      5-min Rain = 0
KDR1 152325Z 27007KT 12/M06 A3014 RMK A01 T01201062  RH  028%=      5-min Rain = 0
KDR1 152330Z 30007KT 12/M05 A3014 RMK A01 T01201053  RH  030%=      5-min Rain = 0
KDR1 152335Z 31006KT 12/M05 A3014 RMK A01 T01191054  RH  030%=      5-min Rain = 0
KDR1 152340Z 28007KT 12/M05 A3014 RMK A01 T01181051  RH  031%=      5-min Rain = 0
KDR1 152345Z 25009KT 12/M05 A3013 RMK A01 T01151054  RH  031%=      5-min Rain = 0
KDR1 152350Z 25008KT 11/M06 A3013 RMK A01 T01141055  RH  031%=      5-min Rain = 0
KDR1 152355Z 25007KT 11/M04 A3013 RMK A01 T01121044  RH  034%=      5-min Rain = 0
KDR1 160000Z 26006KT 11/M05 A3013 RMK A01 T01111045  RH  034%=      5-min Rain = 0
KDR1 160005Z 27008KT 11/M05 A3013 RMK A01 T01091047  RH  033%=      5-min Rain = 0
KDR1 160010Z 25007KT 10/M03 A3013 RMK A01 T01031033  RH  039%=      5-min Rain = 0
KDR1 160015Z 26007KT 10/M03 A3013 RMK A01 T00971026  RH  042%=      5-min Rain = 0
KDR1 160020Z 27007KT 10/M04 A3013 RMK A01 T00961035  RH  040%=      5-min Rain = 0
KDR1 160025Z 27007KT 09/M03 A3013 RMK A01 T00881028  RH  044%=      5-min Rain = 0
KDR1 160030Z 27006KT 08/M03 A3013 RMK A01 T00831028  RH  046%=      5-min Rain = 0
KDR1 160035Z 27007KT 07/M03 A3013 RMK A01 T00731025  RH  050%=      5-min Rain = 0
KDR1 160040Z 27008KT 07/M03 A3013 RMK A01 T00711031  RH  049%=      5-min Rain = 0
KDR1 160045Z 27009KT 07/M04 A3013 RMK A01 T00711035  RH  047%=      5-min Rain = 0
KDR1 160050Z 26007KT 07/M04 A3013 RMK A01 T00691035  RH  048%=      5-min Rain = 0
KDR1 160055Z 26007KT 06/M03 A3013 RMK A01 T00611033  RH  052%=      5-min Rain = 0
KDR1 160100Z 26007KT 05/M03 A3013 RMK A01 T00531032  RH  055%=      5-min Rain = 0
KDR1 160105Z 26008KT 05/M04 A3013 RMK A01 T00521035  RH  054%=      5-min Rain = 0
KDR1 160110Z 26009KT 05/M04 A3013 RMK A01 T00501037  RH  054%=      5-min Rain = 0
KDR1 160115Z 25008KT 05/M03 A3013 RMK A01 T00461033  RH  057%=      5-min Rain = 0
KDR1 160120Z 24008KT 04/M03 A3013 RMK A01 T00371031  RH  061%=      5-min Rain = 0
KDR1 160125Z 24008KT 03/M03 A3013 RMK A01 T00341032  RH  063%=      5-min Rain = 0
KDR1 160130Z 24009KT 04/M03 A3013 RMK A01 T00391029  RH  062%=      5-min Rain = 0
KDR1 160135Z 25009KT 04/M03 A3013 RMK A01 T00411031  RH  060%=      5-min Rain = 0
KDR1 160140Z 25008KT 04/M03 A3013 RMK A01 T00411032  RH  059%=      5-min Rain = 0
KDR1 160145Z 24008KT 04/M03 A3013 RMK A01 T00441034  RH  058%=      5-min Rain = 0
KDR1 160150Z 25008KT 04/M03 A3013 RMK A01 T00431034  RH  058%=      5-min Rain = 0
KDR1 160155Z 25008KT 04/M03 A3013 RMK A01 T00401033  RH  060%=      5-min Rain = 0
KDR1 160200Z 24009KT 04/M03 A3013 RMK A01 T00381032  RH  061%=      5-min Rain = 0
KDR1 160205Z 24009KT 04/M03 A3013 RMK A01 T00401034  RH  059%=      5-min Rain = 0
KDR1 160210Z 24009KT 04/M04 A3013 RMK A01 T00411036  RH  058%=      5-min Rain = 0
KDR1 160215Z 24009KT 04/M04 A3013 RMK A01 T00401037  RH  058%=      5-min Rain = 0
KDR1 160220Z 24009KT 04/M04 A3013 RMK A01 T00381037  RH  058%=      5-min Rain = 0
KDR1 160225Z 24010KT 03/M04 A3013 RMK A01 T00341037  RH  061%=      5-min Rain = 0
KDR1 160230Z 24010KT 03/M04 A3013 RMK A01 T00311036  RH  062%=      5-min Rain = 0
KDR1 160235Z 24010KT 03/M04 A3013 RMK A01 T00301036  RH  062%=      5-min Rain = 0
KDR1 160240Z 24010KT 03/M04 A3013 RMK A01 T00311037  RH  062%=      5-min Rain = 0
KDR1 160245Z 24009KT 03/M04 A3013 RMK A01 T00281036  RH  064%=      5-min Rain = 0
KDR1 160250Z 24010KT 03/M04 A3014 RMK A01 T00261035  RH  065%=      5-min Rain = 0
KDR1 160255Z 24010KT 03/M04 A3014 RMK A01 T00271035  RH  064%=      5-min Rain = 0
KDR1 160300Z 24010KT 03/M04 A3014 RMK A01 T00271036  RH  064%=      5-min Rain = 0
KDR1 160305Z 24011KT 03/M04 A3014 RMK A01 T00271036  RH  064%=      5-min Rain = 0
KDR1 160310Z 24010KT 03/M04 A3014 RMK A01 T00261037  RH  064%=      5-min Rain = 0
KDR1 160315Z 24010KT 03/M04 A3014 RMK A01 T00251037  RH  064%=      5-min Rain = 0
KDR1 160320Z 24011KT 03/M04 A3014 RMK A01 T00251037  RH  065%=      5-min Rain = 0
KDR1 160325Z 23011KT 02/M04 A3014 RMK A01 T00241037  RH  065%=      5-min Rain = 0
KDR1 160330Z 24011KT 03/M04 A3014 RMK A01 T00281038  RH  062%=      5-min Rain = 0
KDR1 160335Z 24011KT 02/M04 A3014 RMK A01 T00241037  RH  064%=      5-min Rain = 0
KDR1 160340Z 24010KT 03/M04 A3014 RMK A01 T00251038  RH  064%=      5-min Rain = 0
KDR1 160345Z 24011KT 02/M04 A3014 RMK A01 T00241037  RH  065%=      5-min Rain = 0
KDR1 160350Z 24011KT 03/M04 A3014 RMK A01 T00261039  RH  063%=      5-min Rain = 0
KDR1 160355Z 24011KT 03/M04 A3014 RMK A01 T00271039  RH  062%=      5-min Rain = 0
KDR1 160400Z 24010KT 03/M04 A3014 RMK A01 T00251040  RH  063%=      5-min Rain = 0
KDR1 160405Z 24011KT 02/M04 A3014 RMK A01 T00221038  RH  065%=      5-min Rain = 0
KDR1 160410Z 24011KT 02/M04 A3014 RMK A01 T00241038  RH  064%=      5-min Rain = 0
KDR1 160415Z 24011KT 03/M04 A3014 RMK A01 T00261040  RH  062%=      5-min Rain = 0
KDR1 160420Z 24011KT 03/M04 A3014 RMK A01 T00251039  RH  064%=      5-min Rain = 0
KDR1 160425Z 24011KT 03/M04 A3014 RMK A01 T00251039  RH  063%=      5-min Rain = 0
KDR1 160430Z 23011KT 03/M04 A3014 RMK A01 T00291039  RH  061%=      5-min Rain = 0
KDR1 160435Z 24010KT 03/M04 A3014 RMK A01 T00261038  RH  063%=      5-min Rain = 0
KDR1 160440Z 24011KT 02/M04 A3014 RMK A01 T00241038  RH  065%=      5-min Rain = 0
KDR1 160445Z 24010KT 03/M04 A3013 RMK A01 T00251038  RH  064%=      5-min Rain = 0
KDR1 160450Z 24009KT 02/M04 A3013 RMK A01 T00231038  RH  065%=      5-min Rain = 0
KDR1 160455Z 23010KT 02/M04 A3013 RMK A01 T00231037  RH  065%=      5-min Rain = 0
KDR1 160500Z 24010KT 03/M04 A3013 RMK A01 T00261038  RH  064%=      5-min Rain = 0
KDR1 160505Z 24011KT 03/M04 A3013 RMK A01 T00251039  RH  063%=      5-min Rain = 0
KDR1 160510Z 24010KT 02/M04 A3013 RMK A01 T00241040  RH  063%=      5-min Rain = 0
KDR1 160515Z 24011KT 02/M04 A3014 RMK A01 T00231039  RH  064%=      5-min Rain = 0
KDR1 160520Z 24010KT 02/M04 A3014 RMK A01 T00221039  RH  065%=      5-min Rain = 0
KDR1 160525Z 24010KT 02/M04 A3013 RMK A01 T00191038  RH  067%=      5-min Rain = 0
KDR1 160530Z 24011KT 03/M04 A3013 RMK A01 T00251039  RH  064%=      5-min Rain = 0
KDR1 160535Z 24011KT 02/M04 A3013 RMK A01 T00231039  RH  064%=      5-min Rain = 0
KDR1 160540Z 24011KT 02/M04 A3013 RMK A01 T00231039  RH  064%=      5-min Rain = 0
KDR1 160545Z 24010KT 03/M04 A3013 RMK A01 T00251039  RH  063%=      5-min Rain = 0
KDR1 160550Z 24010KT 02/M04 A3013 RMK A01 T00231039  RH  064%=      5-min Rain = 0
KDR1 160555Z 24010KT 02/M04 A3013 RMK A01 T00221038  RH  065%=      5-min Rain = 0

Page generated in 0.0201 seconds.